createdAt,value
2022-09-22T00:01:27.668Z,1.95
2022-09-22T00:03:58.267Z,2.45
2022-09-22T00:06:32.588Z,2.15
2022-09-22T00:09:01.592Z,1.70
2022-09-22T00:11:31.602Z,2.03
2022-09-22T00:14:09.083Z,2.33
2022-09-22T00:16:45.159Z,2.47
2022-09-22T00:19:19.692Z,2.33
2022-09-22T00:21:47.849Z,2.38
2022-09-22T00:24:16.726Z,2.88
2022-09-22T00:26:44.405Z,2.60
2022-09-22T00:29:11.842Z,2.22
2022-09-22T00:31:41.606Z,2.10
2022-09-22T00:34:15.156Z,1.83
2022-09-22T00:36:42.764Z,2.13
2022-09-22T00:39:10.498Z,2.13
2022-09-22T00:41:42.648Z,2.20
2022-09-22T00:44:21.390Z,1.85
2022-09-22T00:46:55.030Z,1.83
2022-09-22T00:49:43.560Z,1.90
2022-09-22T00:52:16.048Z,1.92
2022-09-22T00:54:43.168Z,2.83
2022-09-22T00:57:16.748Z,1.98
2022-09-22T00:59:45.021Z,2.25
2022-09-22T01:02:12.158Z,2.10
2022-09-22T01:04:40.922Z,1.83
2022-09-22T01:07:08.421Z,1.83
2022-09-22T01:09:35.423Z,1.73
2022-09-22T01:12:04.115Z,1.90
2022-09-22T01:15:19.434Z,2.03
2022-09-22T01:18:11.166Z,1.80
2022-09-22T01:20:53.710Z,2.13
2022-09-22T01:23:39.384Z,2.30
2022-09-22T01:26:49.915Z,1.95
2022-09-22T01:29:47.282Z,1.77
2022-09-22T01:32:30.294Z,1.80
2022-09-22T01:35:26.067Z,1.88
2022-09-22T01:38:25.426Z,1.50
2022-09-22T01:41:00.633Z,1.48
2022-09-22T01:43:42.663Z,1.60
2022-09-22T01:46:28.562Z,1.77
2022-09-22T01:49:00.716Z,1.50
2022-09-22T01:51:42.732Z,1.60
2022-09-22T01:54:22.980Z,1.45
2022-09-22T01:56:59.138Z,2.00
2022-09-22T01:59:30.274Z,2.33
2022-09-22T02:02:11.720Z,2.20
2022-09-22T02:04:47.108Z,1.70
2022-09-22T02:07:25.204Z,2.08
2022-09-22T02:10:24.811Z,1.75
2022-09-22T02:12:52.275Z,1.73
2022-09-22T02:15:38.674Z,1.80
2022-09-22T02:18:21.227Z,1.90
2022-09-22T02:25:47.451Z,1.88
2022-09-22T02:28:16.746Z,1.67
2022-09-22T02:30:59.113Z,1.65
2022-09-22T02:33:38.519Z,1.48
2022-09-22T02:36:46.948Z,1.75
2022-09-22T02:39:34.437Z,1.95
2022-09-22T02:42:12.570Z,1.83
2022-09-22T02:45:06.419Z,1.42
2022-09-22T02:47:59.692Z,1.77
2022-09-22T02:50:28.980Z,1.75
2022-09-22T02:53:04.428Z,1.75
2022-09-22T02:55:31.827Z,1.98
2022-09-22T02:57:58.919Z,1.98
2022-09-22T03:00:26.801Z,2.20
2022-09-22T03:02:53.856Z,2.33
2022-09-22T03:05:20.728Z,2.10
2022-09-22T03:07:47.744Z,1.85
2022-09-22T03:10:15.040Z,2.30
2022-09-22T03:13:08.954Z,1.90
2022-09-22T03:15:32.473Z,2.20
2022-09-22T03:17:59.289Z,2.40
2022-09-22T03:20:26.356Z,1.98
2022-09-22T03:22:53.364Z,1.92
2022-09-22T03:25:20.258Z,1.75
2022-09-22T03:27:50.977Z,2.03
2022-09-22T03:30:17.839Z,2.50
2022-09-22T03:32:45.237Z,2.60
2022-09-22T03:35:12.103Z,2.40
2022-09-22T03:37:38.960Z,2.17
2022-09-22T03:40:06.655Z,2.88
2022-09-22T03:42:35.222Z,2.05
2022-09-22T03:45:04.194Z,2.78
2022-09-22T03:47:31.851Z,2.85
2022-09-22T03:49:58.903Z,2.65
2022-09-22T03:52:25.836Z,2.47
2022-09-22T03:54:53.093Z,2.53
2022-09-22T03:57:21.873Z,2.13
2022-09-22T03:59:48.964Z,2.55
2022-09-22T04:02:16.030Z,2.90
2022-09-22T04:04:43.053Z,3.38
2022-09-22T04:07:10.087Z,2.85
2022-09-22T04:09:36.919Z,2.38
2022-09-22T04:12:04.146Z,3.20
2022-09-22T04:14:31.179Z,2.90
2022-09-22T04:16:58.007Z,3.05
2022-09-22T04:22:16.092Z,2.85
2022-09-22T04:24:42.932Z,3.00
2022-09-22T04:27:19.628Z,2.95
2022-09-22T04:29:47.860Z,3.08
2022-09-22T04:32:15.339Z,3.10
2022-09-22T04:34:43.398Z,3.10
2022-09-22T04:37:11.682Z,3.10
2022-09-22T04:39:38.643Z,3.17
2022-09-22T04:42:08.861Z,4.30
2022-09-22T04:44:35.784Z,3.47
2022-09-22T04:47:04.180Z,3.38
2022-09-22T04:49:31.123Z,3.22
2022-09-22T04:52:04.219Z,2.88
2022-09-22T04:54:31.450Z,3.00
2022-09-22T04:56:58.527Z,3.03
2022-09-22T04:59:27.477Z,3.65
2022-09-22T05:01:54.296Z,3.05
2022-09-22T05:04:21.699Z,2.83
2022-09-22T05:06:48.498Z,3.60
2022-09-22T05:09:15.465Z,3.50
2022-09-22T05:11:42.664Z,3.75
2022-09-22T05:14:09.641Z,5.15
2022-09-22T05:16:36.835Z,3.90
2022-09-22T05:19:04.001Z,3.80
2022-09-22T05:21:30.832Z,4.07
2022-09-22T05:23:58.205Z,4.00
2022-09-22T05:26:25.729Z,4.30
2022-09-22T05:29:18.358Z,3.60
2022-09-22T05:31:46.365Z,3.60
2022-09-22T05:34:13.551Z,4.03
2022-09-22T05:36:41.075Z,3.85
2022-09-22T05:39:08.014Z,4.43
2022-09-22T05:41:34.908Z,4.43
2022-09-22T05:44:02.331Z,3.53
2022-09-22T05:46:29.406Z,4.28
2022-09-22T05:48:56.292Z,4.10
2022-09-22T05:51:23.266Z,4.20
2022-09-22T05:53:50.284Z,4.25
2022-09-22T05:56:17.105Z,4.55
2022-09-22T05:58:43.984Z,6.88
2022-09-22T06:01:10.879Z,6.47
2022-09-22T06:03:38.035Z,5.20
2022-09-22T06:06:05.077Z,4.10
2022-09-22T06:08:32.333Z,4.97
2022-09-22T06:10:59.396Z,4.05
2022-09-22T06:13:26.222Z,3.53
2022-09-22T06:15:56.264Z,2.97
2022-09-22T06:18:25.689Z,3.40
2022-09-22T06:21:17.703Z,2.75
2022-09-22T06:23:48.916Z,4.07
2022-09-22T06:26:15.920Z,3.15
2022-09-22T06:28:43.272Z,3.28
2022-09-22T06:31:10.205Z,2.60
2022-09-22T06:33:37.043Z,2.60
2022-09-22T06:36:08.026Z,2.42
2022-09-22T06:38:34.914Z,2.92
2022-09-22T06:41:02.847Z,2.58
2022-09-22T06:43:29.701Z,2.30
2022-09-22T06:46:00.174Z,2.95
2022-09-22T06:48:28.160Z,2.95
2022-09-22T06:50:55.142Z,3.22
2022-09-22T06:53:26.755Z,2.80
2022-09-22T06:55:54.570Z,3.72
2022-09-22T06:58:24.016Z,2.95
2022-09-22T07:00:51.032Z,2.92
2022-09-22T07:03:25.588Z,2.67
2022-09-22T07:06:00.210Z,2.67
2022-09-22T07:08:30.541Z,2.38
2022-09-22T07:10:59.466Z,2.38
2022-09-22T07:13:29.832Z,2.97
2022-09-22T07:16:07.820Z,2.20
2022-09-22T07:18:40.136Z,2.20
2022-09-22T07:21:22.577Z,2.40
2022-09-22T07:23:52.016Z,2.13
2022-09-22T07:26:32.510Z,1.63
2022-09-22T07:29:03.961Z,1.95
2022-09-22T07:31:32.571Z,2.47
2022-09-22T07:34:00.249Z,2.30
2022-09-22T07:36:31.237Z,2.30
2022-09-22T07:39:05.884Z,2.20
2022-09-22T07:41:41.748Z,2.20
2022-09-22T07:44:30.317Z,1.40
2022-09-22T07:47:03.073Z,1.50
2022-09-22T07:49:30.780Z,1.60
2022-09-22T07:51:58.086Z,1.20
2022-09-22T07:54:26.826Z,1.70
2022-09-22T07:56:58.570Z,1.30
2022-09-22T07:59:26.556Z,1.45
2022-09-22T08:01:53.623Z,1.35
2022-09-22T08:04:22.713Z,1.48
2022-09-22T08:06:58.818Z,1.05
2022-09-22T08:09:26.377Z,1.50
2022-09-22T08:11:57.721Z,1.10
2022-09-22T08:14:24.696Z,1.13
2022-09-22T08:16:53.238Z,1.15
2022-09-22T08:19:23.422Z,1.02
2022-09-22T08:21:54.132Z,1.00
2022-09-22T08:24:22.711Z,0.88
2022-09-22T08:26:52.936Z,0.88
2022-09-22T08:29:21.105Z,0.60
2022-09-22T08:31:49.320Z,0.90
2022-09-22T08:34:17.928Z,0.60
2022-09-22T08:36:49.170Z,1.00
2022-09-22T08:39:18.027Z,0.70
2022-09-22T08:42:11.839Z,0.50
2022-09-22T08:44:56.196Z,0.40
2022-09-22T08:47:56.373Z,0.63
2022-09-22T08:50:52.787Z,0.70
2022-09-22T08:56:40.648Z,0.40
2022-09-22T08:59:19.699Z,0.30
2022-09-22T09:01:52.574Z,0.70
2022-09-22T09:04:55.605Z,0.57
2022-09-22T09:07:56.783Z,0.40
2022-09-22T09:13:46.092Z,0.63
2022-09-22T09:16:15.628Z,0.45
2022-09-22T09:18:53.090Z,0.93
2022-09-22T09:21:22.086Z,0.50
2022-09-22T09:26:42.691Z,0.50
2022-09-22T09:29:18.264Z,0.65
2022-09-22T09:31:53.193Z,0.60
2022-09-22T09:34:24.321Z,0.43
2022-09-22T09:37:13.142Z,0.40
2022-09-22T09:40:15.224Z,0.57
2022-09-22T09:42:43.672Z,0.50
2022-09-22T09:45:19.969Z,0.40
2022-09-22T09:48:30.287Z,0.73
2022-09-22T09:51:03.747Z,0.70
2022-09-22T09:53:40.930Z,0.63
2022-09-22T09:56:37.157Z,0.57
2022-09-22T10:02:23.957Z,0.60
2022-09-22T10:04:56.077Z,0.57
2022-09-22T10:10:41.061Z,0.57
2022-09-22T10:13:07.790Z,0.80
2022-09-22T10:15:38.392Z,0.50
2022-09-22T10:18:24.266Z,0.60
2022-09-22T10:21:22.502Z,0.70
2022-09-22T10:23:55.348Z,0.77
2022-09-22T10:26:30.525Z,0.50
2022-09-22T10:29:18.014Z,0.77
2022-09-22T10:32:21.034Z,0.35
2022-09-22T10:34:51.036Z,0.38
2022-09-22T10:37:28.849Z,0.50
2022-09-22T10:40:01.822Z,0.63
2022-09-22T10:42:57.582Z,1.02
2022-09-22T10:45:50.809Z,0.90
2022-09-22T10:48:36.528Z,0.60
2022-09-22T10:51:22.352Z,0.52
2022-09-22T10:54:35.900Z,0.43
2022-09-22T10:58:01.186Z,0.50
2022-09-22T11:00:29.231Z,0.55
2022-09-22T11:03:11.246Z,0.50
2022-09-22T11:06:30.888Z,0.60
2022-09-22T11:09:25.586Z,0.60
2022-09-22T11:12:31.630Z,0.50
2022-09-22T11:15:30.718Z,0.40
2022-09-22T11:18:25.052Z,0.50
2022-09-22T11:21:16.484Z,0.45
2022-09-22T11:24:09.756Z,0.50
2022-09-22T11:26:49.354Z,0.60
2022-09-22T11:29:52.581Z,0.40
2022-09-22T11:32:56.388Z,0.22
2022-09-22T11:35:56.233Z,0.35
2022-09-22T11:39:16.516Z,0.50
2022-09-22T11:41:58.360Z,0.47
2022-09-22T11:45:11.144Z,0.30
2022-09-22T11:47:51.816Z,0.35
2022-09-22T11:51:09.730Z,0.60
2022-09-22T11:53:50.760Z,0.63
2022-09-22T11:56:44.305Z,0.77
2022-09-22T11:59:27.892Z,0.73
2022-09-22T12:01:58.404Z,0.57
2022-09-22T12:04:43.672Z,0.50
2022-09-22T12:07:20.628Z,0.63
2022-09-22T12:10:31.308Z,0.93
2022-09-22T12:12:58.357Z,0.40
2022-09-22T12:15:40.466Z,0.50
2022-09-22T12:18:18.062Z,0.43
2022-09-22T12:20:49.534Z,0.50
2022-09-22T12:23:39.867Z,0.35
2022-09-22T12:26:11.115Z,0.40
2022-09-22T12:28:45.443Z,0.50
2022-09-22T12:31:15.652Z,0.45
2022-09-22T12:33:55.023Z,0.40
2022-09-22T12:36:33.549Z,0.40
2022-09-22T12:39:24.357Z,0.35
2022-09-22T12:42:05.987Z,0.50
2022-09-22T12:44:52.285Z,0.30
2022-09-22T12:47:33.859Z,0.63
2022-09-22T12:50:07.069Z,0.40
2022-09-22T12:52:40.267Z,0.40
2022-09-22T12:55:44.703Z,0.40
2022-09-22T12:58:20.807Z,0.50
2022-09-22T13:00:50.538Z,0.60
2022-09-22T13:03:26.310Z,0.40
2022-09-22T13:06:18.892Z,0.50
2022-09-22T13:08:48.366Z,0.40
2022-09-22T13:11:15.747Z,0.32
2022-09-22T13:13:44.636Z,0.60
2022-09-22T13:16:14.452Z,0.60
2022-09-22T13:19:01.159Z,0.50
2022-09-22T13:21:31.652Z,0.40
2022-09-22T13:24:01.658Z,0.47
2022-09-22T13:26:40.888Z,0.60
2022-09-22T13:29:21.872Z,0.45
2022-09-22T13:31:57.127Z,0.50
2022-09-22T13:34:35.696Z,0.50
2022-09-22T13:37:16.623Z,0.45
2022-09-22T13:39:47.881Z,5.53
2022-09-22T13:42:19.553Z,0.90
2022-09-22T13:45:30.474Z,0.60
2022-09-22T13:50:49.262Z,0.50
2022-09-22T13:53:19.724Z,0.30
2022-09-22T13:55:51.404Z,0.85
2022-09-22T13:58:44.431Z,0.50
2022-09-22T14:01:23.876Z,0.50
2022-09-22T14:03:52.815Z,0.52
2022-09-22T14:06:22.073Z,0.50
2022-09-22T14:08:51.901Z,0.50
2022-09-22T14:11:28.889Z,1.00
2022-09-22T14:13:58.522Z,0.90
2022-09-22T14:16:49.737Z,0.90
2022-09-22T14:19:34.104Z,0.70
2022-09-22T14:22:04.920Z,0.47
2022-09-22T14:24:34.969Z,0.32
2022-09-22T14:27:06.139Z,0.50
2022-09-22T14:29:37.199Z,0.50
2022-09-22T14:32:24.636Z,3.05
2022-09-22T14:35:00.925Z,4.55
2022-09-22T14:37:32.172Z,0.85
2022-09-22T14:40:04.131Z,0.65
2022-09-22T14:42:34.024Z,0.50
2022-09-22T14:45:10.097Z,0.73
2022-09-22T14:50:52.719Z,1.20
2022-09-22T14:53:30.116Z,3.45
2022-09-22T14:56:06.877Z,1.40
2022-09-22T14:58:40.448Z,4.85
2022-09-22T15:01:52.812Z,1.73
2022-09-22T15:04:30.348Z,1.08
2022-09-22T15:06:59.077Z,0.50
2022-09-22T15:09:37.077Z,0.90
2022-09-22T15:12:05.272Z,0.70
2022-09-22T15:14:36.669Z,1.00
2022-09-22T15:17:24.252Z,1.15
2022-09-22T15:19:57.069Z,0.70
2022-09-22T15:22:49.975Z,0.73
2022-09-22T15:25:17.229Z,0.90
2022-09-22T15:27:44.386Z,0.90
2022-09-22T15:30:18.428Z,2.58
2022-09-22T15:32:47.899Z,1.90
2022-09-22T15:35:18.985Z,2.10
2022-09-22T15:37:49.598Z,1.70
2022-09-22T15:40:21.105Z,8.73
2022-09-22T15:43:09.045Z,11.70
2022-09-22T15:45:47.530Z,15.25
2022-09-22T15:48:35.068Z,5.40
2022-09-22T15:51:05.903Z,2.78
2022-09-22T15:53:34.930Z,1.20
2022-09-22T15:56:06.053Z,1.15
2022-09-22T15:58:41.266Z,1.27
2022-09-22T16:01:08.408Z,12.50
2022-09-22T16:03:41.000Z,4.95
2022-09-22T16:06:13.284Z,3.03
2022-09-22T16:08:44.428Z,2.15
2022-09-22T16:11:28.278Z,1.85
2022-09-22T16:14:20.221Z,1.63
2022-09-22T16:16:47.043Z,1.65
2022-09-22T16:19:17.296Z,5.45
2022-09-22T16:21:57.025Z,9.63
2022-09-22T16:24:26.566Z,7.20
2022-09-22T16:26:53.478Z,4.72
2022-09-22T16:29:20.384Z,4.80
2022-09-22T16:31:47.303Z,4.90
2022-09-22T16:34:14.323Z,5.25
2022-09-22T16:36:41.877Z,6.18
2022-09-22T16:39:08.971Z,6.57
2022-09-22T16:41:36.695Z,11.07
2022-09-22T16:44:04.917Z,8.82
2022-09-22T16:46:38.268Z,7.50
2022-09-22T16:49:09.808Z,7.10
2022-09-22T16:51:51.742Z,7.55
2022-09-22T16:54:19.440Z,7.47
2022-09-22T16:56:49.166Z,18.60
2022-09-22T17:02:10.873Z,9.82
2022-09-22T17:04:37.766Z,9.63
2022-09-22T17:07:05.582Z,9.32
2022-09-22T17:09:32.783Z,9.65
2022-09-22T17:12:00.801Z,10.25
2022-09-22T17:14:28.997Z,12.20
2022-09-22T17:16:57.795Z,14.95
2022-09-22T17:19:27.812Z,16.08
2022-09-22T17:21:56.268Z,16.40
2022-09-22T17:24:25.690Z,14.23
2022-09-22T17:26:58.518Z,16.27
2022-09-22T17:29:32.457Z,16.30
2022-09-22T17:32:05.760Z,12.82
2022-09-22T17:34:34.416Z,10.65
2022-09-22T17:37:03.714Z,11.38
2022-09-22T17:39:31.863Z,10.85
2022-09-22T17:41:59.164Z,11.60
2022-09-22T17:44:28.894Z,10.80
2022-09-22T17:47:16.001Z,11.52
2022-09-22T17:50:30.893Z,13.95
2022-09-22T17:53:16.776Z,12.45
2022-09-22T17:55:43.700Z,12.90
2022-09-22T17:58:10.918Z,12.88
2022-09-22T18:03:29.120Z,11.45
2022-09-22T18:05:56.390Z,11.43
2022-09-22T18:08:24.902Z,13.00
2022-09-22T18:10:52.251Z,12.85
2022-09-22T18:13:19.526Z,13.80
2022-09-22T18:15:46.881Z,11.05
2022-09-22T18:18:13.853Z,9.27
2022-09-22T18:20:40.782Z,10.60
2022-09-22T18:23:12.463Z,9.68
2022-09-22T18:25:41.315Z,8.63
2022-09-22T18:28:11.984Z,9.10
2022-09-22T18:30:40.505Z,8.60
2022-09-22T18:33:09.563Z,9.38
2022-09-22T18:35:36.924Z,8.68
2022-09-22T18:38:03.873Z,11.25
2022-09-22T18:40:31.899Z,8.55
2022-09-22T18:42:59.395Z,9.07
2022-09-22T18:45:26.976Z,9.43
2022-09-22T18:47:55.227Z,9.23
2022-09-22T18:50:22.026Z,10.93
2022-09-22T18:52:49.061Z,8.70
2022-09-22T18:55:18.353Z,9.73
2022-09-22T18:57:47.745Z,10.20
2022-09-22T19:00:16.051Z,11.13
2022-09-22T19:02:44.220Z,11.75
2022-09-22T19:05:14.529Z,16.05
2022-09-22T19:07:44.109Z,15.98
2022-09-22T19:10:14.706Z,18.35
2022-09-22T19:12:43.071Z,16.45
2022-09-22T19:15:18.393Z,16.65
2022-09-22T19:17:49.721Z,15.82
2022-09-22T19:20:23.213Z,16.45
2022-09-22T19:22:50.644Z,15.88
2022-09-22T19:25:20.007Z,16.27
2022-09-22T19:28:15.578Z,15.52
2022-09-22T19:30:42.432Z,15.07
2022-09-22T19:33:34.134Z,16.00
2022-09-22T19:36:01.039Z,15.85
2022-09-22T19:38:27.893Z,15.63
2022-09-22T19:40:56.175Z,15.77
2022-09-22T19:43:24.558Z,15.07
2022-09-22T19:45:52.505Z,16.45
2022-09-22T19:48:19.676Z,15.43
2022-09-22T19:50:46.899Z,16.23
2022-09-22T19:53:15.238Z,16.15
2022-09-22T19:55:42.259Z,16.83
2022-09-22T19:58:09.951Z,18.40
2022-09-22T20:00:36.901Z,17.30
2022-09-22T20:03:04.313Z,17.05
2022-09-22T20:05:37.218Z,17.02
2022-09-22T20:08:06.348Z,16.83
2022-09-22T20:10:34.814Z,16.55
2022-09-22T20:13:21.695Z,17.40
2022-09-22T20:15:48.594Z,15.38
2022-09-22T20:18:15.485Z,15.93
2022-09-22T20:20:42.403Z,17.52
2022-09-22T20:23:10.105Z,17.25
2022-09-22T20:25:36.964Z,15.68
2022-09-22T20:28:05.072Z,15.77
2022-09-22T20:30:32.122Z,14.95
2022-09-22T20:32:59.240Z,14.73
2022-09-22T20:35:26.666Z,14.70
2022-09-22T20:37:57.533Z,14.40
2022-09-22T20:40:25.768Z,13.73
2022-09-22T20:42:56.938Z,12.90
2022-09-22T20:45:24.565Z,13.23
2022-09-22T20:47:51.772Z,12.95
2022-09-22T20:50:19.659Z,13.52
2022-09-22T20:52:47.163Z,14.02
2022-09-22T20:55:14.372Z,13.10
2022-09-22T20:57:41.666Z,11.57
2022-09-22T21:00:09.778Z,12.55
2022-09-22T21:02:36.770Z,11.98
2022-09-22T21:05:04.046Z,11.68
2022-09-22T21:07:32.373Z,11.95
2022-09-22T21:13:09.264Z,10.85
2022-09-22T21:15:36.692Z,11.10
2022-09-22T21:18:03.732Z,11.57
2022-09-22T21:20:31.177Z,11.02
2022-09-22T21:22:58.161Z,12.60
2022-09-22T21:25:25.496Z,12.73
2022-09-22T21:27:52.526Z,11.30
2022-09-22T21:30:19.420Z,25.35
2022-09-22T21:32:46.613Z,15.88
2022-09-22T21:35:16.565Z,12.25
2022-09-22T21:37:44.584Z,10.13
2022-09-22T21:40:11.511Z,10.13
2022-09-22T21:42:38.937Z,11.02
2022-09-22T21:45:06.517Z,11.07
2022-09-22T21:47:33.574Z,9.65
2022-09-22T21:50:00.449Z,9.65
2022-09-22T21:52:28.324Z,9.38
2022-09-22T21:54:56.032Z,9.07
2022-09-22T21:57:23.226Z,9.30
2022-09-22T21:59:54.822Z,8.63
2022-09-22T22:05:15.213Z,8.82
2022-09-22T22:07:42.767Z,8.88
2022-09-22T22:10:12.109Z,8.73
2022-09-22T22:12:39.504Z,7.90
2022-09-22T22:15:07.278Z,9.13
2022-09-22T22:17:34.308Z,8.18
2022-09-22T22:20:01.476Z,8.38
2022-09-22T22:22:28.373Z,9.30
2022-09-22T22:24:55.540Z,9.30
2022-09-22T22:27:22.414Z,8.52
2022-09-22T22:29:51.084Z,8.98
2022-09-22T22:32:17.896Z,9.10
2022-09-22T22:34:44.678Z,8.75
2022-09-22T22:37:12.088Z,8.65
2022-09-22T22:39:38.931Z,7.78
2022-09-22T22:42:07.151Z,8.07
2022-09-22T22:44:36.717Z,8.48
2022-09-22T22:47:05.149Z,9.27
2022-09-22T22:49:32.580Z,8.35
2022-09-22T22:52:00.241Z,8.02
2022-09-22T22:54:27.098Z,8.63
2022-09-22T22:56:53.878Z,8.43
2022-09-22T22:59:20.787Z,7.88
2022-09-22T23:01:47.863Z,8.57
2022-09-22T23:04:16.821Z,8.77
2022-09-22T23:06:44.334Z,8.32
2022-09-22T23:09:15.529Z,8.40
2022-09-22T23:11:43.616Z,7.57
2022-09-22T23:14:12.999Z,7.75
2022-09-22T23:16:43.298Z,8.63
2022-09-22T23:19:14.376Z,9.27
2022-09-22T23:21:41.477Z,8.50
2022-09-22T23:24:08.899Z,8.48
2022-09-22T23:26:37.542Z,9.23
2022-09-22T23:29:05.422Z,8.52
2022-09-22T23:31:32.655Z,8.70
2022-09-22T23:34:01.141Z,7.72
2022-09-22T23:36:32.642Z,7.07
2022-09-22T23:39:03.390Z,8.18
2022-09-22T23:41:32.736Z,8.07
2022-09-22T23:43:59.790Z,6.90
2022-09-22T23:46:26.800Z,6.38
2022-09-22T23:48:55.385Z,7.25
2022-09-22T23:51:23.012Z,6.97
2022-09-22T23:54:14.633Z,7.68
2022-09-22T23:56:41.648Z,7.43
2022-09-22T23:59:08.848Z,7.97
